Terminal Aerodrome Forecast
Issued by NWS Nashville, TN

Home | Current Version | Previous Version | Text Only | Print | Product List | Glossary On
Versions: 1 2 3 4 5 6 7 8 9 10 11 12 13 14
000
FTUS44 KOHX 020500
TAFCSV
TAF
KCSV 020527Z 0206/0306 00000KT P6SM FEW080 OVC100
     FM020800 00000KT 4SM BR BKN070
     FM021000 00000KT 1SM BR BKN070
     FM021300 00000KT 4SM BR BKN070
     FM021400 36003KT P6SM BKN070=

USA.gov is the U.S. government's official web portal to all federal, state and local government web resources and services.